Kaohsiung Approach 高雄近場台

Kaohsiung Metar:
2017/10/17 23:30 RCKH 172330Z 02005KT 5000 BR FEW015 27/24 Q1011 NOSIG RMK A2986

站台狀態: